createdAt,value
2018-01-26T00:01:55.728Z,98.21
2018-01-26T00:04:23.291Z,98.28
2018-01-26T00:06:50.880Z,98.72
2018-01-26T00:09:18.429Z,98.78
2018-01-26T00:11:46.098Z,98.84
2018-01-26T00:14:16.242Z,98.89
2018-01-26T00:16:43.829Z,98.91
2018-01-26T00:19:11.444Z,98.75
2018-01-26T00:21:38.991Z,97.99
2018-01-26T00:24:06.575Z,98.45
2018-01-26T00:26:34.122Z,98.41
2018-01-26T00:29:01.701Z,98.37
2018-01-26T00:31:29.250Z,96.56
2018-01-26T00:33:56.873Z,96.77
2018-01-26T00:36:24.472Z,97.04
2018-01-26T00:38:52.791Z,96.12
2018-01-26T00:41:20.407Z,96.29
2018-01-26T00:43:47.970Z,96.93
2018-01-26T00:46:15.559Z,97.75
2018-01-26T00:48:43.111Z,98.07
2018-01-26T00:51:10.731Z,98.20
2018-01-26T00:53:38.284Z,98.58
2018-01-26T00:56:05.845Z,98.92
2018-01-26T00:58:34.291Z,98.76
2018-01-26T01:01:01.913Z,98.62
2018-01-26T01:03:29.482Z,98.64
2018-01-26T01:05:57.030Z,98.29
2018-01-26T01:08:24.578Z,98.34
2018-01-26T01:10:52.127Z,98.75
2018-01-26T01:13:19.679Z,98.58
2018-01-26T01:15:47.221Z,98.56
2018-01-26T01:18:14.815Z,98.71
2018-01-26T01:20:42.370Z,98.67
2018-01-26T01:23:09.953Z,98.53
2018-01-26T01:25:37.506Z,98.68
2018-01-26T01:28:05.067Z,98.81
2018-01-26T01:30:32.626Z,98.76
2018-01-26T01:33:00.210Z,98.53
2018-01-26T01:35:27.755Z,98.48
2018-01-26T01:37:55.344Z,98.32
2018-01-26T01:40:22.891Z,98.10
2018-01-26T01:42:50.510Z,98.15
2018-01-26T01:45:18.314Z,97.95
2018-01-26T01:47:45.978Z,97.91
2018-01-26T01:50:13.638Z,97.75
2018-01-26T01:52:41.189Z,97.82
2018-01-26T01:55:08.739Z,97.71
2018-01-26T01:57:36.322Z,97.78
2018-01-26T02:00:03.873Z,97.63
2018-01-26T02:02:31.542Z,97.87
2018-01-26T02:05:03.843Z,97.85
2018-01-26T02:07:31.425Z,97.47
2018-01-26T02:09:59.035Z,98.08
2018-01-26T02:12:26.619Z,97.39
2018-01-26T02:14:54.169Z,97.60
2018-01-26T02:17:21.750Z,97.73
2018-01-26T02:19:49.297Z,97.84
2018-01-26T02:22:16.945Z,97.54
2018-01-26T02:24:44.531Z,97.85
2018-01-26T02:27:12.082Z,98.14
2018-01-26T02:29:39.724Z,97.69
2018-01-26T02:32:07.294Z,97.58
2018-01-26T02:34:34.950Z,97.43
2018-01-26T02:37:02.495Z,96.52
2018-01-26T02:39:30.046Z,96.50
2018-01-26T02:41:57.597Z,96.60
2018-01-26T02:44:25.153Z,96.52
2018-01-26T02:46:52.756Z,96.45
2018-01-26T02:49:20.346Z,96.36
2018-01-26T02:51:47.976Z,96.54
2018-01-26T02:54:15.582Z,97.06
2018-01-26T02:56:43.130Z,96.95
2018-01-26T02:59:10.759Z,96.42
2018-01-26T03:01:38.302Z,96.83
2018-01-26T03:04:05.849Z,96.91
2018-01-26T03:06:33.434Z,96.95
2018-01-26T03:09:00.982Z,96.98
2018-01-26T03:11:28.530Z,96.60
2018-01-26T03:13:56.078Z,96.13
2018-01-26T03:16:23.685Z,96.29
2018-01-26T03:18:51.253Z,96.97
2018-01-26T03:21:18.910Z,96.47
2018-01-26T03:23:46.454Z,96.96
2018-01-26T03:26:14.031Z,96.74
2018-01-26T03:28:41.570Z,95.81
2018-01-26T03:31:09.156Z,95.51
2018-01-26T03:33:36.710Z,96.57
2018-01-26T03:36:04.479Z,96.89
2018-01-26T03:38:32.036Z,96.94
2018-01-26T03:40:59.695Z,97.30
2018-01-26T03:43:27.245Z,97.08
2018-01-26T03:45:54.825Z,96.79
2018-01-26T03:48:22.374Z,95.90
2018-01-26T03:50:49.946Z,95.36
2018-01-26T03:53:17.606Z,95.30
2018-01-26T03:55:45.162Z,95.07
2018-01-26T03:58:12.830Z,94.32
2018-01-26T04:00:40.386Z,94.31
2018-01-26T04:03:07.932Z,94.35
2018-01-26T04:05:35.605Z,94.94
2018-01-26T04:08:03.169Z,95.83
2018-01-26T04:10:30.715Z,96.24
2018-01-26T04:12:59.317Z,95.37
2018-01-26T04:15:26.867Z,94.69
2018-01-26T04:17:54.534Z,95.49
2018-01-26T04:20:22.082Z,95.64
2018-01-26T04:22:49.662Z,95.80
2018-01-26T04:25:17.318Z,95.61
2018-01-26T04:27:45.043Z,96.26
2018-01-26T04:30:12.589Z,95.31
2018-01-26T04:32:40.129Z,94.73
2018-01-26T04:35:07.689Z,94.79
2018-01-26T04:37:35.326Z,95.55
2018-01-26T04:40:02.870Z,95.37
2018-01-26T04:42:30.427Z,95.37
2018-01-26T04:44:58.010Z,96.06
2018-01-26T04:47:25.574Z,95.18
2018-01-26T04:49:53.166Z,95.91
2018-01-26T04:52:20.719Z,95.95
2018-01-26T04:54:48.558Z,94.84
2018-01-26T04:57:16.115Z,94.55
2018-01-26T04:59:43.657Z,95.40
2018-01-26T05:02:11.208Z,96.25
2018-01-26T05:04:38.760Z,95.98
2018-01-26T05:07:06.350Z,95.65
2018-01-26T05:09:33.925Z,95.43
2018-01-26T05:12:01.520Z,95.87
2018-01-26T05:14:29.142Z,96.07
2018-01-26T05:16:56.686Z,95.45
2018-01-26T05:19:24.230Z,95.39
2018-01-26T05:21:51.827Z,95.92
2018-01-26T05:24:19.377Z,95.76
2018-01-26T05:26:46.926Z,95.63
2018-01-26T05:29:14.614Z,95.62
2018-01-26T05:31:42.154Z,95.60
2018-01-26T05:34:09.699Z,96.15
2018-01-26T05:36:37.260Z,96.36
2018-01-26T05:39:04.845Z,95.48
2018-01-26T05:41:32.421Z,96.07
2018-01-26T05:43:59.984Z,96.30
2018-01-26T05:46:27.578Z,97.14
2018-01-26T05:48:55.222Z,97.44
2018-01-26T05:51:23.307Z,97.98
2018-01-26T05:53:50.900Z,97.71
2018-01-26T05:56:19.279Z,98.06
2018-01-26T05:58:46.975Z,97.72
2018-01-26T06:01:14.599Z,96.96
2018-01-26T06:03:42.145Z,97.36
2018-01-26T06:06:09.738Z,97.70
2018-01-26T06:08:37.287Z,97.68
2018-01-26T06:11:04.838Z,97.84
2018-01-26T06:13:32.389Z,97.00
2018-01-26T06:15:59.942Z,97.32
2018-01-26T06:18:27.490Z,97.51
2018-01-26T06:20:55.329Z,97.95
2018-01-26T06:23:22.882Z,98.00
2018-01-26T06:25:50.433Z,97.62
2018-01-26T06:28:17.982Z,97.68
2018-01-26T06:30:45.726Z,97.84
2018-01-26T06:33:13.334Z,97.80
2018-01-26T06:35:40.881Z,98.11
2018-01-26T06:38:08.433Z,98.16
2018-01-26T06:40:35.982Z,97.93
2018-01-26T06:43:03.570Z,98.13
2018-01-26T06:45:31.122Z,98.00
2018-01-26T06:47:58.697Z,98.12
2018-01-26T06:50:26.242Z,98.26
2018-01-26T06:52:53.795Z,97.58
2018-01-26T06:55:21.347Z,97.87
2018-01-26T06:57:48.904Z,98.29
2018-01-26T07:00:17.231Z,97.89
2018-01-26T07:02:44.781Z,97.51
2018-01-26T07:05:12.334Z,97.60
2018-01-26T07:07:40.103Z,97.75
2018-01-26T07:10:07.649Z,97.90
2018-01-26T07:12:35.226Z,97.51
2018-01-26T07:15:02.783Z,97.15
2018-01-26T07:17:30.441Z,97.54
2018-01-26T07:19:57.981Z,97.27
2018-01-26T07:22:25.535Z,96.72
2018-01-26T07:24:53.093Z,96.54
2018-01-26T07:27:20.689Z,95.80
2018-01-26T07:29:48.234Z,96.03
2018-01-26T07:32:15.785Z,96.31
2018-01-26T07:34:43.336Z,97.04
2018-01-26T07:37:10.932Z,96.81
2018-01-26T07:39:38.560Z,95.65
2018-01-26T07:42:06.110Z,96.99
2018-01-26T07:44:33.710Z,96.72
2018-01-26T07:47:01.264Z,96.68
2018-01-26T07:49:28.810Z,95.47
2018-01-26T07:51:56.602Z,96.05
2018-01-26T07:54:24.154Z,95.64
2018-01-26T07:56:51.719Z,95.93
2018-01-26T07:59:19.262Z,96.49
2018-01-26T08:01:46.817Z,95.17
2018-01-26T08:04:14.415Z,96.38
2018-01-26T08:06:41.962Z,95.53
2018-01-26T08:09:10.105Z,95.50
2018-01-26T08:11:40.082Z,95.97
2018-01-26T08:14:07.784Z,96.81
2018-01-26T08:16:35.349Z,96.01
2018-01-26T08:19:03.014Z,96.02
2018-01-26T08:21:30.666Z,96.45
2018-01-26T08:24:02.612Z,96.11
2018-01-26T08:26:30.544Z,96.68
2018-01-26T08:29:02.972Z,96.47
2018-01-26T08:31:31.019Z,96.63
2018-01-26T08:34:00.240Z,97.09
2018-01-26T08:36:28.465Z,97.60
2018-01-26T08:38:58.391Z,96.76
2018-01-26T08:41:27.908Z,95.78
2018-01-26T08:43:56.148Z,95.81
2018-01-26T08:46:25.266Z,96.27
2018-01-26T08:48:53.512Z,96.66
2018-01-26T08:51:21.560Z,96.03
2018-01-26T08:53:50.602Z,96.75
2018-01-26T08:56:18.577Z,95.97
2018-01-26T08:58:47.787Z,95.43
2018-01-26T09:01:16.231Z,96.58
2018-01-26T09:03:45.756Z,95.91
2018-01-26T09:06:15.649Z,95.64
2018-01-26T09:08:46.881Z,95.59
2018-01-26T09:11:18.706Z,96.40
2018-01-26T09:13:47.745Z,97.05
2018-01-26T09:16:16.863Z,96.84
2018-01-26T09:18:46.601Z,97.26
2018-01-26T09:21:16.056Z,97.33
2018-01-26T09:23:45.759Z,96.69
2018-01-26T09:26:15.591Z,96.04
2018-01-26T09:28:47.361Z,94.97
2018-01-26T09:31:16.497Z,95.65
2018-01-26T09:33:45.130Z,95.80
2018-01-26T09:36:13.130Z,95.98
2018-01-26T09:38:41.276Z,96.55
2018-01-26T09:41:09.357Z,95.48
2018-01-26T09:43:40.507Z,95.74
2018-01-26T09:46:08.473Z,96.19
2018-01-26T09:48:36.439Z,95.85
2018-01-26T09:51:06.776Z,96.31
2018-01-26T09:53:37.132Z,96.17
2018-01-26T09:56:05.509Z,93.42
2018-01-26T09:58:33.058Z,92.59
2018-01-26T10:01:00.650Z,93.82
2018-01-26T10:03:28.267Z,94.62
2018-01-26T10:05:55.927Z,95.07
2018-01-26T10:08:23.472Z,95.94
2018-01-26T10:10:51.027Z,96.48
2018-01-26T10:13:18.614Z,93.32
2018-01-26T10:15:46.196Z,94.37
2018-01-26T10:18:13.808Z,94.70
2018-01-26T10:20:41.394Z,93.62
2018-01-26T10:23:08.945Z,94.35
2018-01-26T10:25:36.514Z,94.63
2018-01-26T10:28:04.099Z,94.72
2018-01-26T10:30:31.708Z,94.70
2018-01-26T10:32:59.266Z,94.74
2018-01-26T10:47:17.012Z,93.33
2018-01-26T10:49:44.562Z,93.41
2018-01-26T10:52:12.220Z,94.44
2018-01-26T10:54:39.783Z,91.27
2018-01-26T10:57:07.392Z,92.30
2018-01-26T10:59:34.946Z,93.61
2018-01-26T11:02:02.501Z,94.15
2018-01-26T11:04:30.050Z,91.94
2018-01-26T11:06:57.627Z,92.19
2018-01-26T11:09:25.178Z,90.38
2018-01-26T11:11:52.838Z,92.65
2018-01-26T11:14:20.383Z,90.37
2018-01-26T11:16:47.933Z,92.04
2018-01-26T11:19:15.488Z,92.77
2018-01-26T11:21:43.043Z,90.99
2018-01-26T11:24:10.664Z,91.79
2018-01-26T11:26:38.624Z,90.95
2018-01-26T11:29:06.202Z,91.01
2018-01-26T11:31:33.750Z,91.23
2018-01-26T11:34:01.395Z,91.08
2018-01-26T11:36:28.958Z,90.63
2018-01-26T11:38:56.506Z,91.10
2018-01-26T11:41:24.080Z,91.30
2018-01-26T11:43:51.623Z,91.72
2018-01-26T11:46:19.218Z,91.45
2018-01-26T11:48:46.775Z,92.29
2018-01-26T11:51:14.330Z,93.23
2018-01-26T11:53:41.882Z,92.94
2018-01-26T11:56:09.431Z,92.35
2018-01-26T11:58:36.973Z,92.86
2018-01-26T12:01:04.535Z,92.59
2018-01-26T12:03:32.091Z,91.82
2018-01-26T12:05:59.683Z,92.27
2018-01-26T12:08:27.229Z,92.67
2018-01-26T12:10:54.782Z,91.73
2018-01-26T12:13:22.331Z,92.14
2018-01-26T12:15:49.892Z,93.07
2018-01-26T12:18:17.453Z,93.22
2018-01-26T12:20:45.255Z,93.79
2018-01-26T12:23:12.814Z,94.83
2018-01-26T12:25:40.366Z,95.15
2018-01-26T12:28:07.915Z,94.42
2018-01-26T12:30:35.463Z,94.01
2018-01-26T12:33:03.010Z,94.72
2018-01-26T12:35:30.612Z,94.73
2018-01-26T12:37:58.247Z,93.85
2018-01-26T12:40:25.810Z,93.84
2018-01-26T12:42:53.395Z,93.46
2018-01-26T12:45:20.943Z,93.62
2018-01-26T12:47:48.499Z,93.89
2018-01-26T12:50:16.054Z,93.88
2018-01-26T12:52:43.664Z,94.79
2018-01-26T12:55:11.218Z,94.45
2018-01-26T12:57:38.774Z,95.51
2018-01-26T13:00:06.326Z,94.67
2018-01-26T13:02:34.509Z,94.92
2018-01-26T13:05:02.312Z,94.60
2018-01-26T13:07:29.929Z,95.06
2018-01-26T13:09:57.483Z,95.78
2018-01-26T13:12:25.034Z,95.32
2018-01-26T13:14:52.583Z,94.90
2018-01-26T13:17:20.273Z,94.84
2018-01-26T13:19:48.921Z,95.19
2018-01-26T13:22:16.483Z,95.35
2018-01-26T13:24:44.039Z,95.46
2018-01-26T13:27:11.590Z,95.56
2018-01-26T13:29:39.243Z,95.83
2018-01-26T13:32:06.806Z,95.18
2018-01-26T13:34:34.368Z,96.14
2018-01-26T13:37:01.922Z,96.04
2018-01-26T13:39:29.545Z,96.00
2018-01-26T13:41:57.206Z,95.65
2018-01-26T13:44:24.909Z,94.74
2018-01-26T13:46:53.693Z,94.90
2018-01-26T13:49:21.740Z,95.33
2018-01-26T13:51:49.484Z,94.96
2018-01-26T13:54:17.876Z,94.77
2018-01-26T13:56:46.618Z,94.24
2018-01-26T13:59:15.549Z,94.32
2018-01-26T14:01:44.517Z,94.01
2018-01-26T14:04:13.732Z,94.28
2018-01-26T14:06:59.365Z,94.77
2018-01-26T14:09:50.813Z,94.78
2018-01-26T14:12:23.736Z,94.43
2018-01-26T14:14:51.311Z,94.10
2018-01-26T14:17:18.889Z,94.58
2018-01-26T14:19:46.434Z,95.00
2018-01-26T14:22:14.114Z,94.68
2018-01-26T14:24:41.663Z,94.23
2018-01-26T14:27:09.214Z,93.93
2018-01-26T14:29:36.758Z,94.22
2018-01-26T14:32:04.307Z,94.64
2018-01-26T14:34:31.901Z,95.45
2018-01-26T14:36:59.448Z,95.58
2018-01-26T14:39:27.007Z,95.30
2018-01-26T14:41:54.555Z,95.42
2018-01-26T14:44:22.103Z,96.09
2018-01-26T14:46:49.649Z,96.14
2018-01-26T14:49:17.198Z,95.93
2018-01-26T14:51:44.746Z,95.96
2018-01-26T14:54:12.294Z,96.02
2018-01-26T14:56:39.843Z,96.36
2018-01-26T14:59:07.398Z,96.04
2018-01-26T15:01:34.946Z,96.64
2018-01-26T15:04:02.602Z,96.73
2018-01-26T15:06:30.157Z,96.63
2018-01-26T15:08:57.706Z,96.83
2018-01-26T15:11:25.286Z,96.76
2018-01-26T15:13:52.834Z,96.58
2018-01-26T15:16:20.542Z,96.73
2018-01-26T15:18:48.093Z,97.19
2018-01-26T15:21:15.750Z,97.42
2018-01-26T15:23:43.293Z,97.36
2018-01-26T15:26:10.875Z,97.57
2018-01-26T15:28:38.462Z,97.40
2018-01-26T15:31:06.015Z,97.51
2018-01-26T15:33:33.643Z,96.73
2018-01-26T15:36:01.218Z,96.31
2018-01-26T15:38:28.761Z,96.12
2018-01-26T15:40:56.324Z,95.95
2018-01-26T15:43:23.872Z,96.06
2018-01-26T15:45:51.425Z,95.93
2018-01-26T15:48:18.987Z,96.43
2018-01-26T15:50:46.537Z,96.83
2018-01-26T15:53:14.142Z,96.96
2018-01-26T15:55:41.696Z,96.83
2018-01-26T15:58:09.250Z,96.67
2018-01-26T16:00:36.823Z,96.99
2018-01-26T16:03:04.377Z,97.41
2018-01-26T16:05:31.970Z,97.62
2018-01-26T16:07:59.527Z,97.84
2018-01-26T16:10:27.093Z,97.98
2018-01-26T16:12:54.661Z,97.90
2018-01-26T16:15:22.212Z,97.68
2018-01-26T16:17:49.756Z,97.65
2018-01-26T16:20:17.339Z,97.78
2018-01-26T16:22:44.970Z,98.01
2018-01-26T16:25:12.553Z,98.32
2018-01-26T16:27:40.198Z,98.34
2018-01-26T16:30:07.855Z,98.41
2018-01-26T16:32:35.402Z,98.59
2018-01-26T16:35:02.973Z,97.10
2018-01-26T16:37:30.712Z,96.63
2018-01-26T16:39:58.267Z,97.32
2018-01-26T16:42:25.847Z,97.93
2018-01-26T16:44:53.400Z,98.19
2018-01-26T16:47:20.982Z,98.28
2018-01-26T16:49:48.642Z,98.25
2018-01-26T16:52:16.186Z,98.35
2018-01-26T16:54:43.741Z,97.09
2018-01-26T16:57:11.285Z,97.29
2018-01-26T16:59:38.829Z,97.90
2018-01-26T17:02:06.384Z,98.05
2018-01-26T17:04:33.937Z,97.67
2018-01-26T17:07:01.491Z,96.53
2018-01-26T17:09:29.082Z,95.93
2018-01-26T17:11:56.686Z,95.97
2018-01-26T17:14:24.233Z,96.14
2018-01-26T17:16:51.813Z,95.65
2018-01-26T17:19:19.469Z,96.17
2018-01-26T17:21:47.058Z,95.93
2018-01-26T17:24:14.621Z,96.13
2018-01-26T17:26:42.179Z,95.37
2018-01-26T17:29:09.765Z,95.93
2018-01-26T17:31:37.377Z,95.67
2018-01-26T17:34:04.918Z,96.12
2018-01-26T17:36:32.497Z,95.98
2018-01-26T17:39:00.047Z,95.73
2018-01-26T17:41:27.598Z,95.99
2018-01-26T17:43:55.147Z,96.10
2018-01-26T17:46:22.708Z,96.81
2018-01-26T17:48:50.253Z,96.96
2018-01-26T17:51:17.802Z,96.22
2018-01-26T17:53:45.389Z,96.53
2018-01-26T17:56:12.943Z,96.88
2018-01-26T17:58:40.526Z,97.14
2018-01-26T18:01:08.082Z,96.50
2018-01-26T18:03:35.670Z,96.58
2018-01-26T18:06:03.254Z,96.99
2018-01-26T18:08:30.847Z,97.68
2018-01-26T18:10:58.399Z,97.54
2018-01-26T18:13:25.954Z,98.06
2018-01-26T18:15:53.514Z,97.64
2018-01-26T18:18:21.070Z,96.96
2018-01-26T18:20:48.658Z,97.26
2018-01-26T18:23:16.206Z,97.06
2018-01-26T18:25:43.794Z,97.06
2018-01-26T18:28:11.341Z,97.23
2018-01-26T18:30:38.897Z,97.33
2018-01-26T18:33:06.445Z,97.49
2018-01-26T18:35:34.046Z,97.31
2018-01-26T18:38:02.418Z,96.40
2018-01-26T18:40:29.970Z,95.90
2018-01-26T18:42:57.520Z,96.30
2018-01-26T18:45:25.127Z,96.12
2018-01-26T18:47:52.663Z,96.33
2018-01-26T18:50:20.217Z,95.94
2018-01-26T18:52:47.799Z,96.17
2018-01-26T18:55:15.453Z,96.36
2018-01-26T18:57:43.023Z,96.75
2018-01-26T19:00:10.611Z,96.51
2018-01-26T19:02:38.241Z,96.51
2018-01-26T19:05:05.953Z,96.18
2018-01-26T19:07:33.494Z,96.14
2018-01-26T19:10:01.079Z,96.63
2018-01-26T19:12:28.666Z,96.98
2018-01-26T19:14:56.218Z,96.16
2018-01-26T19:17:23.772Z,96.07
2018-01-26T19:19:51.332Z,96.84
2018-01-26T19:22:18.920Z,97.04
2018-01-26T19:24:46.498Z,97.40
2018-01-26T19:27:14.094Z,96.58
2018-01-26T19:29:41.645Z,95.92
2018-01-26T19:32:09.205Z,95.96
2018-01-26T19:34:36.754Z,96.47
2018-01-26T19:37:04.389Z,96.33
2018-01-26T19:39:31.939Z,96.34
2018-01-26T19:41:59.514Z,95.83
2018-01-26T19:44:27.098Z,95.08
2018-01-26T19:46:54.650Z,95.14
2018-01-26T19:49:22.259Z,94.84
2018-01-26T19:51:49.819Z,94.69
2018-01-26T19:54:17.393Z,94.94
2018-01-26T19:56:44.947Z,94.59
2018-01-26T19:59:12.510Z,94.37
2018-01-26T20:01:40.064Z,94.88
2018-01-26T20:04:07.632Z,95.53
2018-01-26T20:06:52.843Z,95.50
2018-01-26T20:09:26.581Z,96.07
2018-01-26T20:11:59.818Z,95.63
2018-01-26T20:14:27.370Z,95.44
2018-01-26T20:16:54.959Z,95.67
2018-01-26T20:19:22.668Z,96.17
2018-01-26T20:21:50.235Z,95.72
2018-01-26T20:24:17.787Z,95.91
2018-01-26T20:26:45.344Z,95.67
2018-01-26T20:29:12.894Z,96.65
2018-01-26T20:31:40.474Z,95.77
2018-01-26T20:34:08.190Z,96.45
2018-01-26T20:36:35.743Z,95.71
2018-01-26T20:39:03.380Z,96.00
2018-01-26T20:41:31.006Z,96.43
2018-01-26T20:43:58.681Z,96.54
2018-01-26T20:46:26.385Z,96.03
2018-01-26T20:48:54.015Z,96.11
2018-01-26T20:51:22.412Z,96.05
2018-01-26T20:53:50.153Z,96.45
2018-01-26T20:56:17.709Z,96.34
2018-01-26T20:58:45.271Z,96.02
2018-01-26T21:01:12.812Z,96.28
2018-01-26T21:03:40.454Z,96.47
2018-01-26T21:06:08.004Z,96.58
2018-01-26T21:08:35.587Z,96.64
2018-01-26T21:11:03.138Z,96.66
2018-01-26T21:13:30.686Z,95.66
2018-01-26T21:15:58.351Z,96.01
2018-01-26T21:18:25.910Z,95.48
2018-01-26T21:20:53.570Z,95.67
2018-01-26T21:23:21.154Z,95.19
2018-01-26T21:25:48.707Z,95.18
2018-01-26T21:28:17.244Z,95.86
2018-01-26T21:30:44.837Z,96.77
2018-01-26T21:33:12.462Z,97.00
2018-01-26T21:35:40.841Z,96.80
2018-01-26T21:38:08.447Z,95.99
2018-01-26T21:40:36.010Z,96.26
2018-01-26T21:43:03.563Z,95.60
2018-01-26T21:45:31.155Z,95.61
2018-01-26T21:47:58.709Z,96.52
2018-01-26T21:50:26.294Z,96.85
2018-01-26T21:52:53.847Z,96.82
2018-01-26T21:55:21.643Z,97.39
2018-01-26T21:57:49.194Z,97.41
2018-01-26T22:00:16.790Z,97.12
2018-01-26T22:02:44.339Z,96.89
2018-01-26T22:05:15.850Z,96.38
2018-01-26T22:07:43.426Z,96.07
2018-01-26T22:10:10.970Z,95.67
2018-01-26T22:12:38.792Z,96.05
2018-01-26T22:15:06.337Z,95.83
2018-01-26T22:17:33.886Z,96.67
2018-01-26T22:20:01.440Z,95.88
2018-01-26T22:22:28.992Z,96.42
2018-01-26T22:24:56.546Z,96.77
2018-01-26T22:27:24.098Z,96.33
2018-01-26T22:29:51.718Z,96.30
2018-01-26T22:32:19.278Z,95.86
2018-01-26T22:34:46.938Z,95.73
2018-01-26T22:37:14.603Z,95.68
2018-01-26T22:39:42.151Z,95.55
2018-01-26T22:42:09.707Z,95.38
2018-01-26T22:44:37.592Z,95.32
2018-01-26T22:47:05.236Z,95.65
2018-01-26T22:49:32.794Z,96.46
2018-01-26T22:52:00.378Z,96.41
2018-01-26T22:54:27.964Z,96.69
2018-01-26T22:56:55.522Z,97.02
2018-01-26T22:59:23.070Z,97.07
2018-01-26T23:01:50.691Z,97.42
2018-01-26T23:04:18.247Z,96.98
2018-01-26T23:06:45.805Z,96.66
2018-01-26T23:09:13.367Z,96.65
2018-01-26T23:11:40.971Z,96.94
2018-01-26T23:14:08.515Z,96.98
2018-01-26T23:16:36.066Z,97.07
2018-01-26T23:19:03.618Z,96.89
2018-01-26T23:21:31.175Z,96.57
2018-01-26T23:23:58.794Z,96.78
2018-01-26T23:26:26.345Z,97.20
2018-01-26T23:28:53.907Z,97.16
2018-01-26T23:31:21.465Z,97.14
2018-01-26T23:33:49.019Z,97.41
2018-01-26T23:36:16.594Z,97.54
2018-01-26T23:38:44.164Z,97.25
2018-01-26T23:41:11.715Z,96.57
2018-01-26T23:43:39.345Z,96.73
2018-01-26T23:46:06.938Z,97.17
2018-01-26T23:48:34.500Z,97.64
2018-01-26T23:51:02.238Z,97.93
2018-01-26T23:53:29.796Z,97.91
2018-01-26T23:55:57.350Z,97.67
2018-01-26T23:58:24.917Z,97.19
